Time;durP1;ratioP1;P1;durP2;ratioP2;P2;SDS_P1;SDS_P2;PMS_P1;PMS_P2;Temp;Humidity;BMP_temperature;BMP_pressure;BME280_temperature;BME280_humidity;BME280_pressure;Samples;Min_cycle;Max_cycle;Signal;HPM_P1;HPM_P2
2022/02/14 00:00:31;;;;;;;5.68;5.10;;;;;;;10.21;74.67;99737.44;10417996;28;20029;-75
2022/02/14 00:05:32;;;;;;;3.63;3.22;;;;;;;10.27;75.05;99730.34;10418274;28;20038;-75
2022/02/14 00:10:32;;;;;;;8.65;5.05;;;;;;;10.55;73.55;99725.25;10416924;28;20057;-75
2022/02/14 00:15:34;;;;;;;6.65;3.92;;;;;;;10.73;72.73;99735.25;10417743;28;20065;-75
2022/02/14 00:20:34;;;;;;;9.80;4.85;;;;;;;10.89;72.55;99726.50;10417722;28;20436;-75
2022/02/14 00:25:35;;;;;;;14.27;5.32;;;;;;;11.04;71.80;99711.72;10417511;28;20065;-75
2022/02/14 00:30:35;;;;;;;8.82;4.38;;;;;;;11.07;71.89;99719.38;10415548;28;20124;-75
2022/02/14 00:35:36;;;;;;;6.80;4.00;;;;;;;11.10;71.30;99698.09;10416810;28;20108;-75
2022/02/14 00:40:36;;;;;;;7.00;4.55;;;;;;;11.14;71.18;99676.78;10416810;28;20550;-75
2022/02/14 00:45:37;;;;;;;8.50;4.05;;;;;;;11.11;71.25;99682.66;10416950;28;20044;-75
2022/02/14 00:50:37;;;;;;;5.18;4.68;;;;;;;11.18;71.03;99673.38;10416615;28;20068;-75
2022/02/14 00:55:38;;;;;;;8.40;4.20;;;;;;;11.12;70.96;99663.44;10416321;28;20423;-75
2022/02/14 01:00:38;;;;;;;11.75;5.93;;;;;;;11.14;71.28;99646.97;10415596;28;20223;-75
2022/02/14 01:05:39;;;;;;;5.47;5.03;;;;;;;11.14;71.41;99639.69;10416348;28;20112;-75
2022/02/14 01:10:39;;;;;;;9.43;4.90;;;;;;;11.08;71.68;99637.06;10414863;28;20424;-75
2022/02/14 01:15:39;;;;;;;11.85;5.70;;;;;;;10.99;71.20;99614.91;10414439;28;20041;-75
2022/02/14 01:20:40;;;;;;;10.07;6.35;;;;;;;10.93;71.42;99591.44;10415009;28;20057;-75
2022/02/14 01:25:40;;;;;;;10.20;4.53;;;;;;;10.92;71.68;99595.22;10414251;28;20152;-75
2022/02/14 01:30:41;;;;;;;4.95;3.88;;;;;;;10.93;70.96;99589.56;10413366;28;20048;-75
2022/02/14 01:35:42;;;;;;;8.85;3.67;;;;;;;10.99;71.03;99595.13;10415013;28;20095;-75
2022/02/14 01:40:43;;;;;;;5.55;4.15;;;;;;;11.06;70.75;99571.44;10415065;28;20037;-75
2022/02/14 01:45:43;;;;;;;6.47;3.95;;;;;;;11.09;71.08;99565.56;10415273;28;20112;-75
2022/02/14 01:50:47;;;;;;;7.03;4.07;;;;;;;11.20;70.49;99551.22;10415296;28;20032;-75
2022/02/14 01:55:48;;;;;;;5.82;3.80;;;;;;;11.17;70.40;99538.97;10413597;28;20033;-75
2022/02/14 02:00:48;;;;;;;3.65;3.35;;;;;;;11.21;70.07;99520.34;10414183;28;20091;-75
2022/02/14 02:05:49;;;;;;;6.07;3.10;;;;;;;11.23;70.02;99518.22;10415171;28;20543;-75
2022/02/14 02:10:49;;;;;;;4.60;3.25;;;;;;;11.27;69.92;99513.97;10396808;28;20034;-75
2022/02/14 02:15:50;;;;;;;9.93;4.15;;;;;;;11.33;70.02;99513.03;10414583;28;20061;-75
2022/02/14 02:20:50;;;;;;;3.63;3.13;;;;;;;11.34;69.80;99487.56;10414165;28;20504;-75
2022/02/14 02:25:51;;;;;;;4.00;2.97;;;;;;;11.41;69.46;99488.28;10415969;28;20033;-75
2022/02/14 02:30:51;;;;;;;7.40;4.38;;;;;;;11.36;69.80;99500.91;10413906;28;20469;-75
2022/02/14 02:35:51;;;;;;;6.55;3.60;;;;;;;11.37;69.95;99492.53;10421864;28;20050;-75
2022/02/14 02:40:52;;;;;;;5.90;4.35;;;;;;;11.37;69.74;99492.53;10421890;28;20440;-75
2022/02/14 02:45:56;;;;;;;12.00;3.95;;;;;;;11.41;69.53;99476.59;10422130;28;20128;-75
2022/02/14 02:51:02;;;;;;;6.80;3.38;;;;;;;11.44;69.42;99459.06;10420021;28;20033;-75
2022/02/14 02:56:03;;;;;;;6.82;3.13;;;;;;;11.44;69.47;99456.34;10419953;28;20037;-75
2022/02/14 03:01:03;;;;;;;2.35;2.13;;;;;;;11.41;69.44;99460.34;10419339;28;20103;-75
2022/02/14 03:06:04;;;;;;;5.75;2.92;;;;;;;11.45;69.37;99457.97;10420794;28;20033;-75
2022/02/14 03:11:04;;;;;;;12.65;3.38;;;;;;;11.44;69.49;99435.47;10420325;28;20124;-75
2022/02/14 03:16:05;;;;;;;4.78;3.83;;;;;;;11.39;69.04;99462.47;10419050;28;20033;-75
2022/02/14 03:21:05;;;;;;;5.03;2.58;;;;;;;11.44;68.92;99421.09;10420199;28;20512;-75
2022/02/14 03:26:06;;;;;;;6.35;2.55;;;;;;;11.43;69.26;99428.41;10420128;28;20045;-75
2022/02/14 03:31:06;;;;;;;3.25;1.85;;;;;;;11.41;68.98;99412.38;10418110;28;20040;-75
2022/02/14 03:36:06;;;;;;;3.10;2.80;;;;;;;11.33;69.24;99399.22;10417881;28;20049;-75
2022/02/14 03:41:07;;;;;;;11.27;2.20;;;;;;;11.34;69.21;99398.13;10420095;28;20045;-75
2022/02/14 03:46:08;;;;;;;2.50;2.13;;;;;;;11.30;69.48;99415.13;10417496;28;20444;-75
2022/02/14 03:51:09;;;;;;;6.28;3.83;;;;;;;11.26;69.60;99413.94;10418822;28;20037;-75
2022/02/14 03:56:09;;;;;;;4.90;2.95;;;;;;;11.16;70.40;99393.69;10418430;28;20042;-75
2022/02/14 04:01:10;;;;;;;6.38;2.65;;;;;;;11.16;70.71;99401.00;10417437;28;20049;-75
2022/02/14 04:06:10;;;;;;;10.52;3.08;;;;;;;11.11;70.69;99368.41;10418643;28;20456;-75
2022/02/14 04:11:11;;;;;;;5.40;2.97;;;;;;;11.05;70.95;99385.59;10418328;28;20064;-75
2022/02/14 04:16:11;;;;;;;4.78;3.08;;;;;;;11.04;70.96;99356.84;10417863;28;20037;-75
2022/02/14 04:21:11;;;;;;;3.08;2.70;;;;;;;10.95;71.55;99375.38;10417949;28;20484;-75
2022/02/14 04:26:12;;;;;;;5.15;2.67;;;;;;;10.93;71.89;99393.72;10418058;28;20481;-74
2022/02/14 04:31:12;;;;;;;3.72;2.70;;;;;;;10.90;72.31;99361.69;10416643;28;20056;-75
2022/02/14 04:36:13;;;;;;;4.38;2.50;;;;;;;10.89;72.64;99390.66;10415550;28;20049;-75
2022/02/14 04:41:13;;;;;;;5.85;2.90;;;;;;;10.83;73.12;99367.25;10417124;28;20116;-75
2022/02/14 04:46:14;;;;;;;13.57;2.95;;;;;;;10.83;73.35;99361.81;10415857;28;20041;-75
2022/02/14 04:51:14;;;;;;;2.95;2.67;;;;;;;10.81;73.37;99371.25;10415292;28;20041;-75
2022/02/14 04:56:14;;;;;;;5.35;2.70;;;;;;;10.81;73.32;99407.25;10414695;28;20030;-75
2022/02/14 05:01:15;;;;;;;8.60;2.88;;;;;;;10.81;73.13;99398.31;10415527;28;20504;-75
2022/02/14 05:06:15;;;;;;;8.25;2.63;;;;;;;10.80;73.61;99393.97;10415965;28;20120;-75
2022/02/14 05:11:16;;;;;;;2.00;1.90;;;;;;;10.68;74.35;99385.84;10415800;28;20401;-75
2022/02/14 05:16:22;;;;;;;6.30;2.10;;;;;;;10.64;74.74;99400.91;10414350;28;20088;-75
2022/02/14 05:21:22;;;;;;;7.50;2.47;;;;;;;10.64;75.14;99417.16;10415747;28;20091;-75
2022/02/14 05:26:22;;;;;;;3.67;2.58;;;;;;;10.56;76.12;99431.88;10415276;28;20098;-75
2022/02/14 05:31:23;;;;;;;3.42;2.53;;;;;;;10.38;78.33;99437.38;10413538;28;20030;-75
2022/02/14 05:36:23;;;;;;;3.45;1.77;;;;;;;10.26;79.47;99442.75;10414711;28;20207;-75
2022/02/14 05:41:24;;;;;;;3.83;3.17;;;;;;;9.97;82.49;99461.41;10357736;28;20056;-78
2022/02/14 05:46:24;;;;;;;3.92;2.65;;;;;;;9.57;88.38;99471.91;10415001;28;20473;-74
2022/02/14 05:51:24;;;;;;;3.20;2.50;;;;;;;9.04;91.43;99492.22;10413344;28;20128;-75
2022/02/14 05:56:25;;;;;;;2.15;1.95;;;;;;;8.73;94.46;99476.91;10413677;28;20108;-74
2022/02/14 06:01:26;;;;;;;1.42;1.38;;;;;;;8.54;96.02;99500.28;10412847;28;20489;-75
2022/02/14 06:06:26;;;;;;;2.00;1.80;;;;;;;8.43;98.98;99505.59;10417045;28;20033;-75
2022/02/14 06:11:26;;;;;;;1.80;1.70;;;;;;;8.32;100.00;99528.63;10421346;28;20049;-75
2022/02/14 06:16:27;;;;;;;2.80;1.77;;;;;;;8.37;100.00;99520.72;10422065;28;20076;-75
2022/02/14 06:21:27;;;;;;;5.70;2.38;;;;;;;8.38;100.00;99533.19;10422268;28;20034;-75
2022/02/14 06:26:32;;;;;;;3.28;2.97;;;;;;;8.36;100.00;99552.28;10421778;28;20042;-75
2022/02/14 06:31:32;;;;;;;3.60;2.60;;;;;;;8.34;100.00;99561.63;10421243;28;20065;-76
2022/02/14 06:36:33;;;;;;;3.35;3.08;;;;;;;8.27;100.00;99575.16;10421341;28;20089;-76
2022/02/14 06:41:33;;;;;;;10.70;4.05;;;;;;;8.27;100.00;99582.41;10421315;28;20493;-76
2022/02/14 06:46:33;;;;;;;4.80;3.70;;;;;;;8.24;100.00;99590.94;10420328;28;20071;-76
2022/02/14 06:51:39;;;;;;;10.65;3.97;;;;;;;8.21;100.00;99604.84;10420002;28;20030;-76
2022/02/14 06:56:39;;;;;;;9.13;4.03;;;;;;;8.13;100.00;99612.09;10421349;28;20057;-76
2022/02/14 07:01:40;;;;;;;3.42;3.17;;;;;;;8.15;100.00;99615.44;10421869;28;20083;-76
2022/02/14 07:06:41;;;;;;;2.55;2.35;;;;;;;8.04;100.00;99621.50;10402627;28;20034;-76
2022/02/14 07:11:44;;;;;;;7.03;3.22;;;;;;;8.05;100.00;99642.00;10419170;28;20041;-76
2022/02/14 07:16:44;;;;;;;14.77;2.72;;;;;;;8.06;100.00;99638.28;10419304;28;20072;-76
2022/02/14 07:21:45;;;;;;;3.22;2.80;;;;;;;8.06;100.00;99651.75;10419385;28;20067;-76
2022/02/14 07:26:45;;;;;;;7.75;3.67;;;;;;;8.02;100.00;99649.72;10419885;28;20044;-76
2022/02/14 07:31:46;;;;;;;2.55;2.35;;;;;;;8.00;100.00;99678.72;10418738;28;20060;-76
2022/02/14 07:36:46;;;;;;;7.10;2.90;;;;;;;8.00;100.00;99686.81;10417710;28;20520;-76
2022/02/14 07:41:48;;;;;;;8.98;4.22;;;;;;;8.03;100.00;99687.22;10418068;28;20053;-76
2022/02/14 07:46:51;;;;;;;3.60;2.67;;;;;;;8.00;100.00;99698.41;10418971;28;20037;-76
2022/02/14 07:51:51;;;;;;;8.18;3.08;;;;;;;8.08;100.00;99700.91;10417381;28;20049;-76
2022/02/14 07:56:51;;;;;;;13.50;4.03;;;;;;;8.09;100.00;99716.03;10418130;28;20033;-76
2022/02/14 08:01:52;;;;;;;7.75;3.72;;;;;;;8.11;100.00;99719.38;10417693;28;20495;-76
2022/02/14 08:06:53;;;;;;;7.93;3.80;;;;;;;8.22;100.00;99717.06;10416859;28;20121;-75
2022/02/14 08:11:53;;;;;;;7.95;3.03;;;;;;;8.44;100.00;99729.25;10418024;28;20038;-75
2022/02/14 08:16:53;;;;;;;3.60;2.65;;;;;;;8.38;100.00;99735.50;10417609;28;20060;-75
2022/02/14 08:21:54;;;;;;;6.18;2.97;;;;;;;8.34;100.00;99740.47;10417110;28;20469;-75
2022/02/14 08:26:54;;;;;;;4.20;3.05;;;;;;;8.34;100.00;99745.03;10416237;28;20439;-75
2022/02/14 08:31:55;;;;;;;6.88;3.53;;;;;;;8.51;100.00;99743.56;10416591;28;20041;-75
2022/02/14 08:36:55;;;;;;;10.75;3.80;;;;;;;8.49;100.00;99763.72;10417433;28;20050;-75
2022/02/14 08:41:55;;;;;;;6.10;3.47;;;;;;;8.50;100.00;99760.78;10416905;28;20040;-75
2022/02/14 08:46:56;;;;;;;7.90;3.65;;;;;;;8.60;100.00;99765.75;10416536;28;20095;-75
2022/02/14 08:51:56;;;;;;;3.28;3.00;;;;;;;8.80;99.95;99771.88;10416842;28;20052;-75
2022/02/14 08:56:57;;;;;;;3.30;3.08;;;;;;;8.80;99.47;99777.28;10415610;28;20480;-75
2022/02/14 09:02:00;;;;;;;6.78;3.20;;;;;;;8.80;99.38;99774.59;10414131;28;20120;-75
2022/02/14 09:07:01;;;;;;;4.78;3.90;;;;;;;8.84;98.86;99789.34;10414585;28;20037;-75
2022/02/14 09:12:01;;;;;;;4.68;3.03;;;;;;;8.73;97.93;99781.88;10415647;28;20515;-75
2022/02/14 09:17:02;;;;;;;6.20;3.47;;;;;;;8.74;98.62;99790.81;10415230;28;20473;-75
2022/02/14 09:22:02;;;;;;;9.02;3.00;;;;;;;8.73;98.20;99810.75;10415150;28;20029;-75
2022/02/14 09:27:03;;;;;;;6.43;3.63;;;;;;;8.77;98.09;99817.38;10397853;28;20071;-75
2022/02/14 09:32:04;;;;;;;5.50;2.60;;;;;;;8.76;97.41;99823.84;10396629;28;20034;-75
2022/02/14 09:37:04;;;;;;;2.22;2.03;;;;;;;8.74;96.59;99834.00;10414917;28;20140;-75
2022/02/14 09:42:05;;;;;;;7.28;2.72;;;;;;;8.81;93.41;99835.66;10413230;28;20041;-75
2022/02/14 09:47:06;;;;;;;7.80;2.30;;;;;;;8.99;92.14;99848.47;10413303;28;20040;-74
2022/02/14 09:52:07;;;;;;;3.13;2.83;;;;;;;9.16;92.01;99856.94;10414195;28;20041;-74
2022/02/14 09:57:08;;;;;;;13.43;2.80;;;;;;;9.25;91.53;99866.47;10414330;28;20034;-74
2022/02/14 10:02:19;;;;;;;8.15;4.28;;;;;;;9.29;89.81;99874.97;10413899;28;20460;-74
2022/02/14 10:07:20;;;;;;;13.32;4.60;;;;;;;9.39;88.29;99859.13;10413015;28;20030;-74
2022/02/14 10:12:20;;;;;;;4.82;2.83;;;;;;;9.27;88.71;99864.34;10413933;28;20465;-74
2022/02/14 10:17:22;;;;;;;9.90;2.80;;;;;;;9.24;88.90;99872.88;10414121;28;20400;-74
2022/02/14 10:22:22;;;;;;;8.13;2.65;;;;;;;9.44;87.33;99878.19;10413802;28;20117;-74
2022/02/14 10:27:30;;;;;;;4.70;2.03;;;;;;;9.53;84.58;99890.41;10412876;28;20488;-74
2022/02/14 10:32:31;;;;;;;5.85;2.33;;;;;;;9.49;84.86;99905.41;10412947;28;20029;-74
2022/02/14 10:37:41;;;;;;;5.07;2.80;;;;;;;9.52;85.33;99920.38;10413631;28;20037;-74
2022/02/14 10:42:42;;;;;;;16.48;3.85;;;;;;;9.75;82.59;99919.84;10413730;28;20124;-74
2022/02/14 10:47:44;;;;;;;14.23;3.85;;;;;;;9.83;83.29;99926.88;10413522;28;20176;-74
2022/02/14 10:52:52;;;;;;;7.43;3.08;;;;;;;10.78;79.28;99922.22;10414945;28;20068;-74
2022/02/14 10:57:53;;;;;;;2.90;1.73;;;;;;;12.08;72.61;99929.25;10419487;28;20084;-74
2022/02/14 11:02:58;;;;;;;7.90;2.42;;;;;;;12.68;70.40;99933.75;10418834;28;20473;-74
2022/02/14 11:07:58;;;;;;;4.80;2.90;;;;;;;12.47;70.84;99948.72;10420295;28;20033;-74
2022/02/14 11:13:00;;;;;;;3.80;1.77;;;;;;;12.77;70.22;99963.06;10419882;28;20389;-74
2022/02/14 11:18:17;;;;;;;1.90;1.48;;;;;;;12.39;68.14;99949.88;10419515;28;20034;-74
2022/02/14 11:23:18;;;;;;;7.50;2.55;;;;;;;12.62;68.50;99951.81;10420254;28;20366;-74
2022/02/14 11:28:42;;;;;;;10.20;2.35;;;;;;;12.37;67.35;99965.56;10401900;28;20120;-74
2022/02/14 11:33:53;;;;;;;4.47;2.55;;;;;;;11.99;68.41;99966.75;10417693;28;20049;-74
2022/02/14 11:38:59;;;;;;;1.45;1.42;;;;;;;12.12;65.85;99962.19;10419423;28;20076;-74
2022/02/14 11:44:11;;;;;;;5.40;1.92;;;;;;;12.43;66.92;99947.53;10418792;28;20033;-74
2022/02/14 11:49:22;;;;;;;4.28;2.97;;;;;;;13.19;65.84;99960.22;10418888;28;20628;-74
2022/02/14 11:54:34;;;;;;;14.95;2.47;;;;;;;12.73;64.00;99952.88;10416977;28;20041;-74
2022/02/14 11:59:34;;;;;;;6.50;1.45;;;;;;;13.25;62.41;99948.44;10418561;28;20034;-74
2022/02/14 12:04:52;;;;;;;4.60;2.47;;;;;;;13.68;59.94;99940.88;10417293;28;20033;-74
2022/02/14 12:09:58;;;;;;;1.83;1.48;;;;;;;13.72;59.58;99944.78;10417894;28;20436;-74
2022/02/14 12:15:17;;;;;;;5.10;2.03;;;;;;;13.31;56.49;99938.50;10417379;28;20484;-74
2022/02/14 12:20:36;;;;;;;1.33;1.27;;;;;;;12.70;59.64;99962.34;10416396;28;20038;-74
2022/02/14 12:25:36;;;;;;;3.75;1.13;;;;;;;13.62;57.03;99969.03;10416211;28;20457;-74
2022/02/14 12:30:40;;;;;;;2.10;1.50;;;;;;;14.03;55.54;99980.75;10399055;28;20146;-74
2022/02/14 12:35:45;;;;;;;2.05;1.70;;;;;;;13.66;56.97;99976.50;10416030;28;20053;-74
2022/02/14 12:40:52;;;;;;;6.32;2.05;;;;;;;13.47;58.04;99994.03;10415462;28;20481;-74
2022/02/14 12:45:57;;;;;;;12.23;2.03;;;;;;;14.17;58.15;99971.25;10415329;28;20033;-74
2022/02/14 12:50:58;;;;;;;3.25;1.92;;;;;;;13.72;58.17;99963.84;10414904;28;20041;-74
2022/02/14 12:56:19;;;;;;;4.55;2.13;;;;;;;13.95;57.88;99952.03;10415944;28;20056;-74
2022/02/14 13:01:20;;;;;;;5.03;1.63;;;;;;;14.15;56.47;99957.84;10398338;28;20088;-74
2022/02/14 13:06:34;;;;;;;16.08;3.03;;;;;;;14.35;55.02;99981.06;10414557;28;20119;-74
2022/02/14 13:11:40;;;;;;;8.43;3.75;;;;;;;14.06;57.32;99964.75;10415249;28;20111;-74
2022/02/14 13:16:41;;;;;;;5.70;1.97;;;;;;;14.06;52.87;99970.19;10414702;28;20028;-74
2022/02/14 13:21:42;;;;;;;5.38;1.88;;;;;;;13.65;56.27;99972.09;10381057;28;20369;-74
2022/02/14 13:26:42;;;;;;;8.88;2.15;;;;;;;13.75;55.28;99979.66;10415139;28;20040;-74
2022/02/14 13:31:43;;;;;;;6.35;1.83;;;;;;;13.80;54.60;99930.78;10396665;28;20052;-74
2022/02/14 13:36:51;;;;;;;5.20;2.00;;;;;;;13.41;53.98;99965.09;10396869;28;20111;-74
2022/02/14 13:41:52;;;;;;;2.75;2.08;;;;;;;13.43;54.80;99973.81;10413296;28;20124;-74
2022/02/14 13:46:55;;;;;;;4.05;1.48;;;;;;;13.49;52.53;99981.84;10414234;28;20545;-74
2022/02/14 13:51:55;;;;;;;7.15;1.90;;;;;;;13.35;52.85;99998.66;10414421;28;20045;-74
2022/02/14 13:56:56;;;;;;;4.03;1.58;;;;;;;13.14;51.55;99994.63;10413197;28;20030;-74
2022/02/14 14:02:10;;;;;;;11.88;2.42;;;;;;;13.05;52.05;99980.56;10413770;28;20056;-74
2022/02/14 14:07:12;;;;;;;7.57;2.05;;;;;;;12.87;51.43;100005.94;10413159;28;20056;-74
2022/02/14 14:12:13;;;;;;;5.35;2.05;;;;;;;12.74;51.01;99989.88;10395655;28;20046;-74
2022/02/14 14:17:16;;;;;;;4.72;2.13;;;;;;;12.87;53.04;99992.38;10414179;28;20056;-74
2022/02/14 14:22:17;;;;;;;6.22;1.58;;;;;;;12.84;53.63;100011.03;10414036;28;20041;-74
2022/02/14 14:27:18;;;;;;;2.92;1.35;;;;;;;12.58;56.85;100021.25;10398635;28;20047;-74
2022/02/14 14:32:18;;;;;;;10.65;2.83;;;;;;;12.38;57.55;100004.41;10421014;28;20041;-75
2022/02/14 14:37:18;;;;;;;7.97;2.20;;;;;;;12.04;61.14;100032.03;10403156;28;20053;-74
2022/02/14 14:42:19;;;;;;;5.15;2.17;;;;;;;11.98;62.95;100018.53;10422414;28;20077;-74
2022/02/14 14:47:20;;;;;;;6.20;3.05;;;;;;;11.81;63.43;100034.59;10420634;28;20358;-74
2022/02/14 14:52:20;;;;;;;6.80;2.60;;;;;;;11.89;65.35;100034.28;10421278;28;20401;-74
2022/02/14 14:57:24;;;;;;;12.35;3.28;;;;;;;11.54;63.82;100039.47;10420898;28;20037;-74
2022/02/14 15:02:24;;;;;;;6.57;1.63;;;;;;;11.12;65.43;100031.13;10420203;28;20041;-74
2022/02/14 15:07:25;;;;;;;0.93;0.93;;;;;;;10.93;64.83;100039.19;10419317;28;20034;-74
2022/02/14 15:12:26;;;;;;;5.95;1.77;;;;;;;10.69;63.99;100048.97;10402703;28;20107;-74
2022/02/14 15:17:27;;;;;;;4.25;1.40;;;;;;;10.58;64.32;100057.78;10419751;28;20082;-74
2022/02/14 15:22:27;;;;;;;4.50;1.77;;;;;;;10.43;64.93;100068.06;10419907;28;20038;-74
2022/02/14 15:27:28;;;;;;;5.30;2.05;;;;;;;10.26;66.76;100078.56;10419819;28;20056;-74
2022/02/14 15:32:29;;;;;;;2.75;2.08;;;;;;;10.07;68.70;100077.59;10418270;28;20064;-74
2022/02/14 15:37:29;;;;;;;4.70;1.80;;;;;;;9.87;68.69;100082.25;10418951;28;20454;-74
2022/02/14 15:42:29;;;;;;;8.50;1.45;;;;;;;9.49;69.66;100066.75;10419028;28;20037;-74
2022/02/14 15:47:30;;;;;;;3.03;2.35;;;;;;;9.17;71.30;100066.56;10419752;28;20060;-74
2022/02/14 15:52:30;;;;;;;3.58;1.95;;;;;;;9.02;72.58;100074.03;10417708;28;20392;-74
2022/02/14 15:57:31;;;;;;;15.55;3.38;;;;;;;8.81;74.00;100062.41;10417444;28;20034;-74
2022/02/14 16:02:32;;;;;;;6.85;1.92;;;;;;;8.75;75.17;100079.44;10417790;28;20493;-74
2022/02/14 16:07:32;;;;;;;3.33;2.15;;;;;;;8.65;76.46;100072.75;10416961;28;20029;-74
2022/02/14 16:12:32;;;;;;;4.65;2.17;;;;;;;8.47;77.50;100068.78;10416612;28;20041;-74
2022/02/14 16:17:33;;;;;;;3.58;1.80;;;;;;;8.40;78.63;100083.31;10416751;28;20469;-74
2022/02/14 16:22:33;;;;;;;10.10;3.28;;;;;;;8.36;78.83;100094.47;10417690;28;20393;-74
2022/02/14 16:27:35;;;;;;;5.72;3.00;;;;;;;8.24;79.16;100093.41;10399671;28;20033;-74
2022/02/14 16:32:35;;;;;;;2.53;2.17;;;;;;;8.18;79.96;100090.69;10416726;28;20099;-74
2022/02/14 16:37:36;;;;;;;18.05;2.95;;;;;;;8.00;80.32;100115.47;10415415;28;20132;-74
2022/02/14 16:42:36;;;;;;;3.88;2.50;;;;;;;7.96;80.28;100125.00;10415683;28;20060;-74
2022/02/14 16:47:37;;;;;;;2.30;1.73;;;;;;;7.84;80.96;100125.56;10417028;28;20044;-74
2022/02/14 16:52:38;;;;;;;4.05;1.98;;;;;;;7.85;81.29;100129.09;10415578;28;20033;-74
2022/02/14 16:57:38;;;;;;;4.20;2.05;;;;;;;7.85;81.55;100137.19;10415477;28;20033;-74
2022/02/14 17:02:39;;;;;;;3.60;2.30;;;;;;;7.78;83.15;100150.59;10416213;28;20029;-74
2022/02/14 17:07:40;;;;;;;4.57;3.13;;;;;;;7.75;82.79;100147.47;10414875;28;20045;-74
2022/02/14 17:12:40;;;;;;;3.25;1.73;;;;;;;7.78;82.57;100153.28;10414768;28;20469;-74
2022/02/14 17:17:41;;;;;;;13.68;3.28;;;;;;;7.77;81.74;100156.22;10415861;28;20036;-74
2022/02/14 17:22:42;;;;;;;24.17;3.40;;;;;;;7.81;81.93;100173.63;10415125;28;20033;-74
2022/02/14 17:27:43;;;;;;;13.32;2.53;;;;;;;8.02;80.68;100181.66;10415418;28;20040;-74
2022/02/14 17:32:43;;;;;;;9.85;2.65;;;;;;;8.23;78.89;100187.97;10397239;28;20029;-74
2022/02/14 17:37:44;;;;;;;11.55;2.78;;;;;;;8.35;78.23;100200.72;10413918;28;20048;-74
2022/02/14 17:42:44;;;;;;;9.18;2.72;;;;;;;8.35;77.56;100199.88;10415189;28;20397;-74
2022/02/14 17:47:44;;;;;;;6.93;2.08;;;;;;;8.44;78.23;100212.19;10415185;28;20132;-74
2022/02/14 17:52:45;;;;;;;3.47;2.15;;;;;;;8.42;78.23;100206.16;10414791;28;20038;-74
2022/02/14 17:57:45;;;;;;;9.68;3.10;;;;;;;8.34;79.72;100203.63;10413353;28;20030;-74
2022/02/14 18:02:45;;;;;;;7.07;3.22;;;;;;;8.30;79.87;100216.69;10416225;28;20037;-74
2022/02/14 18:07:48;;;;;;;2.47;1.95;;;;;;;8.32;79.38;100219.16;10405256;28;20048;-74
2022/02/14 18:12:55;;;;;;;5.95;2.17;;;;;;;8.27;79.73;100232.44;10421275;28;20037;-74
2022/02/14 18:17:55;;;;;;;4.18;2.40;;;;;;;8.27;79.41;100240.53;10422883;28;20033;-74
2022/02/14 18:22:58;;;;;;;13.13;3.05;;;;;;;8.34;79.44;100238.69;10422404;28;20037;-74
2022/02/14 18:27:59;;;;;;;10.52;2.92;;;;;;;8.36;79.48;100232.06;10421959;28;20041;-74
2022/02/14 18:32:59;;;;;;;9.18;2.92;;;;;;;8.40;79.26;100235.22;10421249;28;20087;-74
2022/02/14 18:38:00;;;;;;;3.55;1.88;;;;;;;8.31;80.68;100250.69;10422000;28;20524;-74
2022/02/14 18:43:00;;;;;;;5.65;2.03;;;;;;;7.89;84.44;100244.41;10422028;28;20033;-75
2022/02/14 18:48:01;;;;;;;7.40;2.28;;;;;;;7.64;86.06;100276.34;10403932;28;20037;-74
2022/02/14 18:53:01;;;;;;;2.25;2.05;;;;;;;7.52;87.53;100277.88;10420733;28;20033;-75
2022/02/14 18:58:02;;;;;;;4.03;1.77;;;;;;;7.46;88.60;100284.88;10420919;28;20026;-75
2022/02/14 19:03:02;;;;;;;8.05;2.88;;;;;;;7.41;89.50;100286.50;10419528;28;20033;-75
2022/02/14 19:08:03;;;;;;;7.10;3.40;;;;;;;7.39;89.94;100283.97;10419593;28;20048;-76
2022/02/14 19:13:03;;;;;;;13.07;2.60;;;;;;;7.39;89.62;100299.31;10419845;28;20564;-75
2022/02/14 19:18:04;;;;;;;10.95;2.90;;;;;;;7.42;89.61;100302.44;10421040;28;20038;-75
2022/02/14 19:23:06;;;;;;;15.27;3.28;;;;;;;7.45;89.79;100293.16;10418891;28;20041;-75
2022/02/14 19:28:07;;;;;;;15.02;3.75;;;;;;;7.45;89.91;100293.16;10420133;28;20030;-75
2022/02/14 19:38:26;;;;;;;7.05;3.03;;;;;;;7.40;91.43;100306.34;10421381;28;20033;-75
2022/02/14 19:43:28;;;;;;;11.00;2.95;;;;;;;7.42;91.65;100315.09;10418548;28;20641;-74
2022/02/14 19:48:28;;;;;;;7.00;2.33;;;;;;;7.39;91.83;100310.09;10419040;28;20120;-74
2022/02/14 19:53:29;;;;;;;4.43;2.38;;;;;;;7.42;91.34;100312.41;10418076;28;20041;-75
2022/02/14 19:58:29;;;;;;;8.98;3.20;;;;;;;7.40;91.07;100318.00;10418021;28;20461;-75
2022/02/14 20:03:31;;;;;;;12.50;2.97;;;;;;;7.49;91.06;100315.16;10418049;28;20436;-75
2022/02/14 20:08:31;;;;;;;14.20;2.97;;;;;;;7.51;91.55;100340.88;10417170;28;20053;-74
2022/02/14 20:13:32;;;;;;;10.38;3.58;;;;;;;7.40;93.37;100355.69;10416560;28;20476;-74
2022/02/14 20:18:32;;;;;;;8.63;3.60;;;;;;;7.29;96.48;100385.81;10413950;28;20107;-74
2022/02/14 20:23:33;;;;;;;6.30;3.40;;;;;;;7.03;97.81;100388.16;10415144;28;20145;-75
2022/02/14 20:28:33;;;;;;;17.92;2.85;;;;;;;6.88;98.70;100397.06;10417298;28;20124;-75
2022/02/14 20:33:34;;;;;;;11.10;3.30;;;;;;;6.82;99.40;100405.06;10415536;28;20104;-75
2022/02/14 20:38:34;;;;;;;12.90;2.45;;;;;;;6.79;100.00;100400.88;10416338;28;20132;-76
2022/02/14 20:43:34;;;;;;;9.32;3.78;;;;;;;6.66;100.00;100416.81;10415975;28;20129;-73
2022/02/14 20:48:35;;;;;;;5.30;2.53;;;;;;;6.42;100.00;100408.00;10417853;28;20045;-75
2022/02/14 20:53:35;;;;;;;21.60;2.85;;;;;;;6.34;100.00;100426.88;10418058;28;20041;-76
2022/02/14 20:58:35;;;;;;;8.55;2.55;;;;;;;6.33;100.00;100432.44;10416670;28;20047;-75
2022/02/14 21:03:36;;;;;;;16.08;4.63;;;;;;;6.38;100.00;100440.78;10416041;28;20037;-77
2022/02/14 21:08:36;;;;;;;10.50;3.95;;;;;;;6.44;100.00;100451.66;10416061;28;20034;-77
2022/02/14 21:13:37;;;;;;;10.75;3.90;;;;;;;6.46;100.00;100465.78;10416066;28;20052;-77
2022/02/14 21:18:37;;;;;;;12.20;3.58;;;;;;;6.55;100.00;100466.53;10416034;28;20523;-76
2022/02/14 21:23:38;;;;;;;12.45;3.78;;;;;;;6.66;100.00;100479.53;10415459;28;20030;-76
2022/02/14 21:28:38;;;;;;;11.38;4.82;;;;;;;6.60;100.00;100485.66;10414409;28;20507;-76
2022/02/14 21:33:39;;;;;;;7.40;2.67;;;;;;;6.48;100.00;100487.94;10413779;28;20052;-76
2022/02/14 21:38:39;;;;;;;11.73;3.45;;;;;;;6.47;100.00;100504.25;10413959;28;20113;-76
2022/02/14 21:43:40;;;;;;;15.00;3.42;;;;;;;6.40;100.00;100504.16;10415276;28;20080;-76
2022/02/14 21:48:41;;;;;;;16.15;2.35;;;;;;;6.36;100.00;100516.28;10415011;28;20423;-76
2022/02/14 21:53:46;;;;;;;7.47;4.40;;;;;;;6.38;100.00;100534.91;10414873;28;20388;-76
2022/02/14 21:58:46;;;;;;;9.05;3.10;;;;;;;6.38;99.49;100537.59;10413786;28;20370;-75
2022/02/14 22:03:47;;;;;;;7.15;2.08;;;;;;;6.31;99.96;100534.81;10413262;28;20041;-76
2022/02/14 22:08:47;;;;;;;5.60;2.38;;;;;;;6.18;99.78;100535.38;10414905;28;20104;-78
2022/02/14 22:13:47;;;;;;;4.80;2.35;;;;;;;6.05;98.07;100538.66;10414262;28;20056;-75
2022/02/14 22:18:48;;;;;;;4.50;1.60;;;;;;;5.83;96.35;100536.72;10413876;28;20048;-75
2022/02/14 22:23:48;;;;;;;1.67;1.55;;;;;;;5.65;95.73;100542.38;10414471;28;20056;-75
2022/02/14 22:28:49;;;;;;;7.47;2.45;;;;;;;5.50;95.48;100542.25;10413159;28;20091;-75
2022/02/14 22:33:49;;;;;;;4.85;2.72;;;;;;;5.44;95.86;100550.16;10413503;28;20061;-75
2022/02/14 22:38:49;;;;;;;5.45;1.95;;;;;;;5.48;96.36;100559.53;10413426;28;20131;-75
2022/02/14 22:43:50;;;;;;;6.47;3.05;;;;;;;5.45;96.03;100565.25;10412959;28;20034;-75
2022/02/14 22:48:50;;;;;;;5.38;2.80;;;;;;;5.38;95.44;100589.28;10415860;28;20041;-75
2022/02/14 22:53:51;;;;;;;19.27;3.30;;;;;;;5.31;94.24;100589.13;10403773;28;20060;-75
2022/02/14 22:58:51;;;;;;;2.03;1.92;;;;;;;5.23;93.81;100599.03;10421438;28;20038;-75
2022/02/14 23:03:51;;;;;;;7.35;3.78;;;;;;;5.17;94.33;100589.84;10419392;28;20068;-75
2022/02/14 23:14:13;;;;;;;4.20;2.10;;;;;;;5.41;97.27;100614.94;10419757;28;20065;-75
2022/02/14 23:19:14;;;;;;;7.60;2.55;;;;;;;5.65;99.70;100612.22;10420942;28;20064;-75
2022/02/14 23:24:15;;;;;;;6.90;2.63;;;;;;;5.74;100.00;100605.81;10420338;28;20114;-75
2022/02/14 23:29:15;;;;;;;4.45;1.60;;;;;;;5.89;100.00;100615.81;10419919;28;20107;-75